sensor_id;sensor_type;location;lat;lon;timestamp;temperature;humidity
76785;SHT30;66893;44.316;0.092;2024-01-30T00:00:54;17.78;58.16
76785;SHT30;66893;44.316;0.092;2024-01-30T00:03:20;17.76;58.20
76785;SHT30;66893;44.316;0.092;2024-01-30T00:05:45;17.76;58.15
76785;SHT30;66893;44.316;0.092;2024-01-30T00:08:10;17.78;58.20
76785;SHT30;66893;44.316;0.092;2024-01-30T00:10:36;17.76;58.14
76785;SHT30;66893;44.316;0.092;2024-01-30T00:13:01;17.78;58.18
76785;SHT30;66893;44.316;0.092;2024-01-30T00:15:27;17.75;58.20
76785;SHT30;66893;44.316;0.092;2024-01-30T00:17:53;17.76;58.27
76785;SHT30;66893;44.316;0.092;2024-01-30T00:20:18;17.74;58.23
76785;SHT30;66893;44.316;0.092;2024-01-30T00:22:44;17.74;58.26
76785;SHT30;66893;44.316;0.092;2024-01-30T00:25:09;17.74;58.31
76785;SHT30;66893;44.316;0.092;2024-01-30T00:27:35;17.71;58.31
76785;SHT30;66893;44.316;0.092;2024-01-30T00:30:01;17.69;58.29
76785;SHT30;66893;44.316;0.092;2024-01-30T00:32:26;17.71;58.33
76785;SHT30;66893;44.316;0.092;2024-01-30T00:34:51;17.71;58.33
76785;SHT30;66893;44.316;0.092;2024-01-30T00:37:17;17.71;58.34
76785;SHT30;66893;44.316;0.092;2024-01-30T00:39:42;17.68;58.34
76785;SHT30;66893;44.316;0.092;2024-01-30T00:42:08;17.68;58.34
76785;SHT30;66893;44.316;0.092;2024-01-30T00:44:36;17.68;58.35
76785;SHT30;66893;44.316;0.092;2024-01-30T00:47:05;17.68;58.36
76785;SHT30;66893;44.316;0.092;2024-01-30T00:49:30;17.67;58.37
76785;SHT30;66893;44.316;0.092;2024-01-30T00:51:55;17.64;58.38
76785;SHT30;66893;44.316;0.092;2024-01-30T00:54:21;17.64;58.38
76785;SHT30;66893;44.316;0.092;2024-01-30T00:56:46;17.65;58.43
76785;SHT30;66893;44.316;0.092;2024-01-30T00:59:12;17.64;58.39
76785;SHT30;66893;44.316;0.092;2024-01-30T01:01:37;17.62;58.45
76785;SHT30;66893;44.316;0.092;2024-01-30T01:04:03;17.61;58.47
76785;SHT30;66893;44.316;0.092;2024-01-30T01:06:28;17.61;58.43
76785;SHT30;66893;44.316;0.092;2024-01-30T01:08:53;17.62;58.46
76785;SHT30;66893;44.316;0.092;2024-01-30T01:11:19;17.59;58.47
76785;SHT30;66893;44.316;0.092;2024-01-30T01:13:44;17.58;58.50
76785;SHT30;66893;44.316;0.092;2024-01-30T01:16:10;17.58;58.51
76785;SHT30;66893;44.316;0.092;2024-01-30T01:18:35;17.58;58.50
76785;SHT30;66893;44.316;0.092;2024-01-30T01:21:00;17.57;58.53
76785;SHT30;66893;44.316;0.092;2024-01-30T01:23:26;17.57;58.54
76785;SHT30;66893;44.316;0.092;2024-01-30T01:25:51;17.57;58.55
76785;SHT30;66893;44.316;0.092;2024-01-30T01:28:17;17.52;58.57
76785;SHT30;66893;44.316;0.092;2024-01-30T01:30:42;17.54;58.58
76785;SHT30;66893;44.316;0.092;2024-01-30T01:33:08;17.54;58.57
76785;SHT30;66893;44.316;0.092;2024-01-30T01:35:34;17.55;58.57
76785;SHT30;66893;44.316;0.092;2024-01-30T01:38:00;17.54;58.63
76785;SHT30;66893;44.316;0.092;2024-01-30T01:40:26;17.55;58.61
76785;SHT30;66893;44.316;0.092;2024-01-30T01:42:53;17.52;58.66
76785;SHT30;66893;44.316;0.092;2024-01-30T01:45:19;17.52;58.62
76785;SHT30;66893;44.316;0.092;2024-01-30T01:47:47;17.52;58.65
76785;SHT30;66893;44.316;0.092;2024-01-30T01:50:15;17.52;58.68
76785;SHT30;66893;44.316;0.092;2024-01-30T01:52:44;17.50;58.67
76785;SHT30;66893;44.316;0.092;2024-01-30T01:55:11;17.51;58.69
76785;SHT30;66893;44.316;0.092;2024-01-30T01:57:37;17.50;58.69
76785;SHT30;66893;44.316;0.092;2024-01-30T02:00:03;17.50;58.68
76785;SHT30;66893;44.316;0.092;2024-01-30T02:02:30;17.48;58.72
76785;SHT30;66893;44.316;0.092;2024-01-30T02:04:58;17.50;58.70
76785;SHT30;66893;44.316;0.092;2024-01-30T02:07:24;17.47;58.71
76785;SHT30;66893;44.316;0.092;2024-01-30T02:09:49;17.48;58.72
76785;SHT30;66893;44.316;0.092;2024-01-30T02:12:15;17.47;58.77
76785;SHT30;66893;44.316;0.092;2024-01-30T02:14:47;17.45;58.72
76785;SHT30;66893;44.316;0.092;2024-01-30T02:17:13;17.47;58.78
76785;SHT30;66893;44.316;0.092;2024-01-30T02:19:39;17.45;58.78
76785;SHT30;66893;44.316;0.092;2024-01-30T02:22:05;17.45;58.79
76785;SHT30;66893;44.316;0.092;2024-01-30T02:24:31;17.44;58.79
76785;SHT30;66893;44.316;0.092;2024-01-30T02:26:57;17.45;58.78
76785;SHT30;66893;44.316;0.092;2024-01-30T02:29:22;17.42;58.80
76785;SHT30;66893;44.316;0.092;2024-01-30T02:31:47;17.41;58.78
76785;SHT30;66893;44.316;0.092;2024-01-30T02:34:13;17.44;58.83
76785;SHT30;66893;44.316;0.092;2024-01-30T02:36:42;17.42;58.83
76785;SHT30;66893;44.316;0.092;2024-01-30T02:39:07;17.41;58.78
76785;SHT30;66893;44.316;0.092;2024-01-30T02:41:33;17.41;58.81
76785;SHT30;66893;44.316;0.092;2024-01-30T02:43:58;17.40;58.86
76785;SHT30;66893;44.316;0.092;2024-01-30T02:46:24;17.40;58.87
76785;SHT30;66893;44.316;0.092;2024-01-30T02:48:49;17.38;58.85
76785;SHT30;66893;44.316;0.092;2024-01-30T02:51:14;17.37;58.87
76785;SHT30;66893;44.316;0.092;2024-01-30T02:53:40;17.37;58.85
76785;SHT30;66893;44.316;0.092;2024-01-30T02:56:05;17.37;58.84
76785;SHT30;66893;44.316;0.092;2024-01-30T02:58:34;17.37;58.88
76785;SHT30;66893;44.316;0.092;2024-01-30T03:01:00;17.34;58.87
76785;SHT30;66893;44.316;0.092;2024-01-30T03:03:25;17.34;58.86
76785;SHT30;66893;44.316;0.092;2024-01-30T03:05:51;17.35;58.91
76785;SHT30;66893;44.316;0.092;2024-01-30T03:08:16;17.32;58.89
76785;SHT30;66893;44.316;0.092;2024-01-30T03:10:41;17.31;58.89
76785;SHT30;66893;44.316;0.092;2024-01-30T03:13:07;17.32;58.92
76785;SHT30;66893;44.316;0.092;2024-01-30T03:15:32;17.30;58.88
76785;SHT30;66893;44.316;0.092;2024-01-30T03:17:57;17.31;58.89
76785;SHT30;66893;44.316;0.092;2024-01-30T03:20:23;17.28;58.90
76785;SHT30;66893;44.316;0.092;2024-01-30T03:22:49;17.27;58.90
76785;SHT30;66893;44.316;0.092;2024-01-30T03:25:14;17.27;58.91
76785;SHT30;66893;44.316;0.092;2024-01-30T03:27:40;17.24;58.86
76785;SHT30;66893;44.316;0.092;2024-01-30T03:30:06;17.27;58.87
76785;SHT30;66893;44.316;0.092;2024-01-30T03:32:31;17.24;58.83
76785;SHT30;66893;44.316;0.092;2024-01-30T03:34:57;17.24;58.84
76785;SHT30;66893;44.316;0.092;2024-01-30T03:37:23;17.21;58.82
76785;SHT30;66893;44.316;0.092;2024-01-30T03:39:48;17.21;58.82
76785;SHT30;66893;44.316;0.092;2024-01-30T03:42:14;17.20;58.77
76785;SHT30;66893;44.316;0.092;2024-01-30T03:44:39;17.20;58.80
76785;SHT30;66893;44.316;0.092;2024-01-30T03:47:05;17.19;58.75
76785;SHT30;66893;44.316;0.092;2024-01-30T03:49:30;17.14;58.74
76785;SHT30;66893;44.316;0.092;2024-01-30T03:51:56;17.14;58.73
76785;SHT30;66893;44.316;0.092;2024-01-30T03:54:21;17.13;58.70
76785;SHT30;66893;44.316;0.092;2024-01-30T03:56:47;17.12;58.70
76785;SHT30;66893;44.316;0.092;2024-01-30T03:59:12;17.10;58.66
76785;SHT30;66893;44.316;0.092;2024-01-30T04:01:37;17.09;58.68
76785;SHT30;66893;44.316;0.092;2024-01-30T04:04:03;17.07;58.63
76785;SHT30;66893;44.316;0.092;2024-01-30T04:06:28;17.04;58.62
76785;SHT30;66893;44.316;0.092;2024-01-30T04:08:54;17.04;58.58
76785;SHT30;66893;44.316;0.092;2024-01-30T04:11:19;17.06;58.58
76785;SHT30;66893;44.316;0.092;2024-01-30T04:13:45;17.00;58.54
76785;SHT30;66893;44.316;0.092;2024-01-30T04:16:22;17.00;58.53
76785;SHT30;66893;44.316;0.092;2024-01-30T04:18:48;17.00;58.49
76785;SHT30;66893;44.316;0.092;2024-01-30T04:21:13;16.97;58.48
76785;SHT30;66893;44.316;0.092;2024-01-30T04:23:40;16.95;58.38
76785;SHT30;66893;44.316;0.092;2024-01-30T04:26:06;16.93;58.41
76785;SHT30;66893;44.316;0.092;2024-01-30T04:28:31;16.95;58.42
76785;SHT30;66893;44.316;0.092;2024-01-30T04:30:56;16.92;58.38
76785;SHT30;66893;44.316;0.092;2024-01-30T04:33:22;16.87;58.31
76785;SHT30;66893;44.316;0.092;2024-01-30T04:35:47;16.89;58.38
76785;SHT30;66893;44.316;0.092;2024-01-30T04:38:13;16.87;58.32
76785;SHT30;66893;44.316;0.092;2024-01-30T04:40:40;16.89;58.28
76785;SHT30;66893;44.316;0.092;2024-01-30T04:43:05;16.87;58.27
76785;SHT30;66893;44.316;0.092;2024-01-30T04:45:30;16.82;58.19
76785;SHT30;66893;44.316;0.092;2024-01-30T04:47:56;16.83;58.23
76785;SHT30;66893;44.316;0.092;2024-01-30T04:50:22;16.82;58.24
76785;SHT30;66893;44.316;0.092;2024-01-30T04:52:47;16.77;58.18
76785;SHT30;66893;44.316;0.092;2024-01-30T04:55:13;16.77;58.18
76785;SHT30;66893;44.316;0.092;2024-01-30T04:57:38;16.77;58.15
76785;SHT30;66893;44.316;0.092;2024-01-30T05:00:04;16.75;58.12
76785;SHT30;66893;44.316;0.092;2024-01-30T05:02:30;16.73;58.12
76785;SHT30;66893;44.316;0.092;2024-01-30T05:04:56;16.73;58.08
76785;SHT30;66893;44.316;0.092;2024-01-30T05:07:21;16.72;58.07
76785;SHT30;66893;44.316;0.092;2024-01-30T05:09:47;16.71;58.10
76785;SHT30;66893;44.316;0.092;2024-01-30T05:12:13;16.71;58.03
76785;SHT30;66893;44.316;0.092;2024-01-30T05:14:38;16.71;57.97
76785;SHT30;66893;44.316;0.092;2024-01-30T05:17:03;16.68;57.96
76785;SHT30;66893;44.316;0.092;2024-01-30T05:19:29;16.68;57.92
76785;SHT30;66893;44.316;0.092;2024-01-30T05:21:54;16.65;57.96
76785;SHT30;66893;44.316;0.092;2024-01-30T05:24:20;16.66;57.93
76785;SHT30;66893;44.316;0.092;2024-01-30T05:26:45;16.65;57.90
76785;SHT30;66893;44.316;0.092;2024-01-30T05:29:12;16.65;57.87
76785;SHT30;66893;44.316;0.092;2024-01-30T05:31:38;16.64;57.86
76785;SHT30;66893;44.316;0.092;2024-01-30T05:34:03;16.62;57.84
76785;SHT30;66893;44.316;0.092;2024-01-30T05:36:28;16.61;57.82
76785;SHT30;66893;44.316;0.092;2024-01-30T05:38:54;16.64;57.82
76785;SHT30;66893;44.316;0.092;2024-01-30T05:41:19;16.62;57.82
76785;SHT30;66893;44.316;0.092;2024-01-30T05:43:46;16.62;57.81
76785;SHT30;66893;44.316;0.092;2024-01-30T05:46:11;16.59;57.78
76785;SHT30;66893;44.316;0.092;2024-01-30T05:48:37;16.58;57.78
76785;SHT30;66893;44.316;0.092;2024-01-30T05:51:02;16.58;57.76
76785;SHT30;66893;44.316;0.092;2024-01-30T05:53:29;16.57;57.75
76785;SHT30;66893;44.316;0.092;2024-01-30T05:55:54;16.54;57.70
76785;SHT30;66893;44.316;0.092;2024-01-30T05:58:20;16.54;57.72
76785;SHT30;66893;44.316;0.092;2024-01-30T06:00:45;16.54;57.71
76785;SHT30;66893;44.316;0.092;2024-01-30T06:03:10;16.51;57.69
76785;SHT30;66893;44.316;0.092;2024-01-30T06:05:36;16.49;57.70
76785;SHT30;66893;44.316;0.092;2024-01-30T06:08:02;16.48;57.70
76785;SHT30;66893;44.316;0.092;2024-01-30T06:10:27;16.49;57.67
76785;SHT30;66893;44.316;0.092;2024-01-30T06:12:53;16.47;57.71
76785;SHT30;66893;44.316;0.092;2024-01-30T06:15:18;16.48;57.67
76785;SHT30;66893;44.316;0.092;2024-01-30T06:17:44;16.45;57.62
76785;SHT30;66893;44.316;0.092;2024-01-30T06:20:09;16.47;57.67
76785;SHT30;66893;44.316;0.092;2024-01-30T06:22:35;16.47;57.67
76785;SHT30;66893;44.316;0.092;2024-01-30T06:25:01;16.44;57.61
76785;SHT30;66893;44.316;0.092;2024-01-30T06:27:26;16.45;57.57
76785;SHT30;66893;44.316;0.092;2024-01-30T06:29:52;16.44;57.57
76785;SHT30;66893;44.316;0.092;2024-01-30T06:32:17;16.42;57.56
76785;SHT30;66893;44.316;0.092;2024-01-30T06:34:43;16.42;57.57
76785;SHT30;66893;44.316;0.092;2024-01-30T06:37:09;16.38;57.55
76785;SHT30;66893;44.316;0.092;2024-01-30T06:39:35;16.37;57.57
76785;SHT30;66893;44.316;0.092;2024-01-30T06:42:01;16.38;57.54
76785;SHT30;66893;44.316;0.092;2024-01-30T06:44:27;16.34;57.54
76785;SHT30;66893;44.316;0.092;2024-01-30T06:46:52;16.34;57.57
76785;SHT30;66893;44.316;0.092;2024-01-30T06:49:17;16.32;57.57
76785;SHT30;66893;44.316;0.092;2024-01-30T06:51:43;16.34;57.53
76785;SHT30;66893;44.316;0.092;2024-01-30T06:54:08;16.32;57.51
76785;SHT30;66893;44.316;0.092;2024-01-30T06:56:34;16.30;57.48
76785;SHT30;66893;44.316;0.092;2024-01-30T06:58:59;16.27;57.49
76785;SHT30;66893;44.316;0.092;2024-01-30T07:01:30;16.27;57.50
76785;SHT30;66893;44.316;0.092;2024-01-30T07:03:57;16.25;57.45
76785;SHT30;66893;44.316;0.092;2024-01-30T07:06:22;16.25;57.46
76785;SHT30;66893;44.316;0.092;2024-01-30T07:08:49;16.27;57.42
76785;SHT30;66893;44.316;0.092;2024-01-30T07:11:19;16.25;57.38
76785;SHT30;66893;44.316;0.092;2024-01-30T07:13:44;16.24;57.35
76785;SHT30;66893;44.316;0.092;2024-01-30T07:16:10;16.25;57.31
76785;SHT30;66893;44.316;0.092;2024-01-30T07:18:35;16.22;57.29
76785;SHT30;66893;44.316;0.092;2024-01-30T07:21:01;16.25;57.29
76785;SHT30;66893;44.316;0.092;2024-01-30T07:23:26;16.21;57.22
76785;SHT30;66893;44.316;0.092;2024-01-30T07:25:51;16.20;57.28
76785;SHT30;66893;44.316;0.092;2024-01-30T07:28:17;16.20;57.22
76785;SHT30;66893;44.316;0.092;2024-01-30T07:30:43;16.14;57.12
76785;SHT30;66893;44.316;0.092;2024-01-30T07:33:09;16.11;57.04
76785;SHT30;66893;44.316;0.092;2024-01-30T07:35:35;16.07;56.97
76785;SHT30;66893;44.316;0.092;2024-01-30T07:38:00;16.00;57.01
76785;SHT30;66893;44.316;0.092;2024-01-30T07:40:26;15.97;56.90
76785;SHT30;66893;44.316;0.092;2024-01-30T07:42:53;15.92;56.90
76785;SHT30;66893;44.316;0.092;2024-01-30T07:45:19;15.89;56.90
76785;SHT30;66893;44.316;0.092;2024-01-30T07:47:48;15.85;56.84
76785;SHT30;66893;44.316;0.092;2024-01-30T07:50:14;15.82;56.81
76785;SHT30;66893;44.316;0.092;2024-01-30T07:52:39;15.76;56.82
76785;SHT30;66893;44.316;0.092;2024-01-30T07:55:05;15.72;56.76
76785;SHT30;66893;44.316;0.092;2024-01-30T07:57:33;15.72;56.72
76785;SHT30;66893;44.316;0.092;2024-01-30T07:59:59;15.66;56.75
76785;SHT30;66893;44.316;0.092;2024-01-30T08:02:24;15.62;56.81
76785;SHT30;66893;44.316;0.092;2024-01-30T08:04:50;15.63;56.77
76785;SHT30;66893;44.316;0.092;2024-01-30T08:07:15;15.61;56.76
76785;SHT30;66893;44.316;0.092;2024-01-30T08:09:43;15.58;56.75
76785;SHT30;66893;44.316;0.092;2024-01-30T08:12:08;15.58;56.80
76785;SHT30;66893;44.316;0.092;2024-01-30T08:14:33;15.56;56.82
76785;SHT30;66893;44.316;0.092;2024-01-30T08:16:59;15.55;56.83
76785;SHT30;66893;44.316;0.092;2024-01-30T08:19:24;15.54;56.88
76785;SHT30;66893;44.316;0.092;2024-01-30T08:21:50;15.52;56.91
76785;SHT30;66893;44.316;0.092;2024-01-30T08:24:15;15.52;56.91
76785;SHT30;66893;44.316;0.092;2024-01-30T08:26:41;15.51;56.93
76785;SHT30;66893;44.316;0.092;2024-01-30T08:29:06;15.54;57.03
76785;SHT30;66893;44.316;0.092;2024-01-30T08:31:31;15.55;56.97
76785;SHT30;66893;44.316;0.092;2024-01-30T08:33:57;15.59;57.04
76785;SHT30;66893;44.316;0.092;2024-01-30T08:36:22;15.62;57.04
76785;SHT30;66893;44.316;0.092;2024-01-30T08:38:48;15.68;57.01
76785;SHT30;66893;44.316;0.092;2024-01-30T08:41:13;15.72;56.98
76785;SHT30;66893;44.316;0.092;2024-01-30T08:43:39;15.73;57.04
76785;SHT30;66893;44.316;0.092;2024-01-30T08:46:04;15.76;57.03
76785;SHT30;66893;44.316;0.092;2024-01-30T08:48:30;15.82;56.98
76785;SHT30;66893;44.316;0.092;2024-01-30T08:50:55;15.83;56.99
76785;SHT30;66893;44.316;0.092;2024-01-30T08:53:20;15.87;56.93
76785;SHT30;66893;44.316;0.092;2024-01-30T08:55:46;15.89;56.96
76785;SHT30;66893;44.316;0.092;2024-01-30T08:58:11;15.90;57.00
76785;SHT30;66893;44.316;0.092;2024-01-30T09:00:37;15.94;56.99
76785;SHT30;66893;44.316;0.092;2024-01-30T09:03:03;15.96;57.02
76785;SHT30;66893;44.316;0.092;2024-01-30T09:05:28;15.99;57.04
76785;SHT30;66893;44.316;0.092;2024-01-30T09:07:54;16.03;57.04
76785;SHT30;66893;44.316;0.092;2024-01-30T09:10:19;16.06;57.07
76785;SHT30;66893;44.316;0.092;2024-01-30T09:12:46;16.07;57.07
76785;SHT30;66893;44.316;0.092;2024-01-30T09:15:11;16.10;57.09
76785;SHT30;66893;44.316;0.092;2024-01-30T09:17:37;16.14;57.08
76785;SHT30;66893;44.316;0.092;2024-01-30T09:20:02;16.13;57.31
76785;SHT30;66893;44.316;0.092;2024-01-30T09:22:28;16.13;57.44
76785;SHT30;66893;44.316;0.092;2024-01-30T09:24:53;16.03;57.68
76785;SHT30;66893;44.316;0.092;2024-01-30T09:27:19;15.99;57.95
76785;SHT30;66893;44.316;0.092;2024-01-30T09:29:45;15.94;58.12
76785;SHT30;66893;44.316;0.092;2024-01-30T09:32:10;15.90;58.36
76785;SHT30;66893;44.316;0.092;2024-01-30T09:34:36;15.86;58.49
76785;SHT30;66893;44.316;0.092;2024-01-30T09:37:01;15.85;58.71
76785;SHT30;66893;44.316;0.092;2024-01-30T09:39:27;15.86;58.95
76785;SHT30;66893;44.316;0.092;2024-01-30T09:44:28;15.86;59.14
76785;SHT30;66893;44.316;0.092;2024-01-30T09:46:55;15.86;59.34
76785;SHT30;66893;44.316;0.092;2024-01-30T09:49:20;15.86;59.50
76785;SHT30;66893;44.316;0.092;2024-01-30T09:51:49;15.90;59.66
76785;SHT30;66893;44.316;0.092;2024-01-30T09:54:15;15.93;59.76
76785;SHT30;66893;44.316;0.092;2024-01-30T09:56:41;15.94;59.92
76785;SHT30;66893;44.316;0.092;2024-01-30T09:59:06;15.97;60.14
76785;SHT30;66893;44.316;0.092;2024-01-30T10:01:34;16.03;60.27
76785;SHT30;66893;44.316;0.092;2024-01-30T10:03:59;16.04;60.28
76785;SHT30;66893;44.316;0.092;2024-01-30T10:06:26;16.06;60.47
76785;SHT30;66893;44.316;0.092;2024-01-30T10:08:52;16.09;60.41
76785;SHT30;66893;44.316;0.092;2024-01-30T10:11:18;16.16;60.40
76785;SHT30;66893;44.316;0.092;2024-01-30T10:13:43;16.18;60.33
76785;SHT30;66893;44.316;0.092;2024-01-30T10:16:09;16.22;60.26
76785;SHT30;66893;44.316;0.092;2024-01-30T10:18:34;16.27;60.23
76785;SHT30;66893;44.316;0.092;2024-01-30T10:21:00;16.31;60.12
76785;SHT30;66893;44.316;0.092;2024-01-30T10:23:25;16.38;60.09
76785;SHT30;66893;44.316;0.092;2024-01-30T10:25:51;16.42;60.19
76785;SHT30;66893;44.316;0.092;2024-01-30T10:28:17;16.48;60.11
76785;SHT30;66893;44.316;0.092;2024-01-30T10:30:43;16.57;60.20
76785;SHT30;66893;44.316;0.092;2024-01-30T10:33:09;16.61;60.21
76785;SHT30;66893;44.316;0.092;2024-01-30T10:35:34;16.65;60.16
76785;SHT30;66893;44.316;0.092;2024-01-30T10:38:00;16.72;60.00
76785;SHT30;66893;44.316;0.092;2024-01-30T10:40:28;16.75;59.91
76785;SHT30;66893;44.316;0.092;2024-01-30T10:42:55;16.80;59.94
76785;SHT30;66893;44.316;0.092;2024-01-30T10:45:22;16.82;59.79
76785;SHT30;66893;44.316;0.092;2024-01-30T10:47:53;16.86;59.73
76785;SHT30;66893;44.316;0.092;2024-01-30T10:50:20;16.89;59.66
76785;SHT30;66893;44.316;0.092;2024-01-30T10:52:46;16.96;59.61
76785;SHT30;66893;44.316;0.092;2024-01-30T10:55:13;16.99;59.53
76785;SHT30;66893;44.316;0.092;2024-01-30T10:57:40;17.02;59.43
76785;SHT30;66893;44.316;0.092;2024-01-30T11:00:11;17.12;59.33
76785;SHT30;66893;44.316;0.092;2024-01-30T11:02:43;17.10;59.27
76785;SHT30;66893;44.316;0.092;2024-01-30T11:05:10;17.19;59.17
76785;SHT30;66893;44.316;0.092;2024-01-30T11:07:36;17.20;59.10
76785;SHT30;66893;44.316;0.092;2024-01-30T11:10:03;17.24;59.13
76785;SHT30;66893;44.316;0.092;2024-01-30T11:12:31;17.27;59.05
76785;SHT30;66893;44.316;0.092;2024-01-30T11:20:09;17.42;58.75
76785;SHT30;66893;44.316;0.092;2024-01-30T11:22:35;17.45;58.70
76785;SHT30;66893;44.316;0.092;2024-01-30T11:25:01;17.52;58.66
76785;SHT30;66893;44.316;0.092;2024-01-30T11:27:29;17.58;58.55
76785;SHT30;66893;44.316;0.092;2024-01-30T11:30:01;17.61;58.46
76785;SHT30;66893;44.316;0.092;2024-01-30T11:32:26;17.65;58.34
76785;SHT30;66893;44.316;0.092;2024-01-30T11:34:52;17.72;58.45
76785;SHT30;66893;44.316;0.092;2024-01-30T11:37:20;17.78;58.29
76785;SHT30;66893;44.316;0.092;2024-01-30T11:39:48;17.82;58.22
76785;SHT30;66893;44.316;0.092;2024-01-30T11:42:13;17.90;58.13
76785;SHT30;66893;44.316;0.092;2024-01-30T11:44:39;17.93;58.11
76785;SHT30;66893;44.316;0.092;2024-01-30T11:47:04;18.00;58.05
76785;SHT30;66893;44.316;0.092;2024-01-30T11:49:30;18.04;57.94
76785;SHT30;66893;44.316;0.092;2024-01-30T11:51:55;18.10;57.85
76785;SHT30;66893;44.316;0.092;2024-01-30T11:54:21;18.16;57.83
76785;SHT30;66893;44.316;0.092;2024-01-30T11:56:47;18.23;57.85
76785;SHT30;66893;44.316;0.092;2024-01-30T11:59:13;18.30;57.81
76785;SHT30;66893;44.316;0.092;2024-01-30T12:01:39;18.37;57.67
76785;SHT30;66893;44.316;0.092;2024-01-30T12:04:05;18.44;57.65
76785;SHT30;66893;44.316;0.092;2024-01-30T12:06:34;18.54;57.49
76785;SHT30;66893;44.316;0.092;2024-01-30T12:09:01;18.59;57.42
76785;SHT30;66893;44.316;0.092;2024-01-30T12:11:30;18.67;57.29
76785;SHT30;66893;44.316;0.092;2024-01-30T12:13:58;18.72;57.16
76785;SHT30;66893;44.316;0.092;2024-01-30T12:16:25;18.84;57.07
76785;SHT30;66893;44.316;0.092;2024-01-30T12:18:59;18.86;56.97
76785;SHT30;66893;44.316;0.092;2024-01-30T12:21:25;18.91;56.91
76785;SHT30;66893;44.316;0.092;2024-01-30T12:23:51;18.98;56.79
76785;SHT30;66893;44.316;0.092;2024-01-30T12:26:17;19.05;56.69
76785;SHT30;66893;44.316;0.092;2024-01-30T12:28:49;19.12;56.62
76785;SHT30;66893;44.316;0.092;2024-01-30T12:31:17;19.16;56.54
76785;SHT30;66893;44.316;0.092;2024-01-30T12:33:42;19.23;56.49
76785;SHT30;66893;44.316;0.092;2024-01-30T12:36:08;19.28;56.44
76785;SHT30;66893;44.316;0.092;2024-01-30T12:38:33;19.35;56.29
76785;SHT30;66893;44.316;0.092;2024-01-30T12:40:59;19.40;56.24
76785;SHT30;66893;44.316;0.092;2024-01-30T12:43:25;19.47;56.15
76785;SHT30;66893;44.316;0.092;2024-01-30T12:45:52;19.53;55.99
76785;SHT30;66893;44.316;0.092;2024-01-30T12:48:18;19.60;55.96
76785;SHT30;66893;44.316;0.092;2024-01-30T12:50:43;19.64;55.87
76785;SHT30;66893;44.316;0.092;2024-01-30T12:53:09;19.71;55.78
76785;SHT30;66893;44.316;0.092;2024-01-30T12:55:35;19.77;55.69
76785;SHT30;66893;44.316;0.092;2024-01-30T12:58:00;19.83;55.52
76785;SHT30;66893;44.316;0.092;2024-01-30T13:00:26;19.92;55.50
76785;SHT30;66893;44.316;0.092;2024-01-30T13:02:52;19.98;55.33
76785;SHT30;66893;44.316;0.092;2024-01-30T13:05:19;20.04;55.27
76785;SHT30;66893;44.316;0.092;2024-01-30T13:07:44;20.12;55.19
76785;SHT30;66893;44.316;0.092;2024-01-30T13:10:10;20.16;55.12
76785;SHT30;66893;44.316;0.092;2024-01-30T13:12:35;20.23;55.02
76785;SHT30;66893;44.316;0.092;2024-01-30T13:15:02;20.32;54.94
76785;SHT30;66893;44.316;0.092;2024-01-30T13:17:30;20.37;54.81
76785;SHT30;66893;44.316;0.092;2024-01-30T13:19:55;20.44;54.68
76785;SHT30;66893;44.316;0.092;2024-01-30T13:22:21;20.51;54.65
76785;SHT30;66893;44.316;0.092;2024-01-30T13:24:47;20.55;54.50
76785;SHT30;66893;44.316;0.092;2024-01-30T13:27:12;20.63;54.48
76785;SHT30;66893;44.316;0.092;2024-01-30T13:29:38;20.70;54.40
76785;SHT30;66893;44.316;0.092;2024-01-30T13:32:04;20.77;54.26
76785;SHT30;66893;44.316;0.092;2024-01-30T13:34:29;20.84;54.19
76785;SHT30;66893;44.316;0.092;2024-01-30T13:36:54;20.91;54.10
76785;SHT30;66893;44.316;0.092;2024-01-30T13:39:20;20.96;54.00
76785;SHT30;66893;44.316;0.092;2024-01-30T13:41:45;21.05;53.90
76785;SHT30;66893;44.316;0.092;2024-01-30T13:44:13;21.13;53.81
76785;SHT30;66893;44.316;0.092;2024-01-30T13:46:38;21.16;53.64
76785;SHT30;66893;44.316;0.092;2024-01-30T13:49:04;21.20;53.55
76785;SHT30;66893;44.316;0.092;2024-01-30T13:51:29;21.26;53.51
76785;SHT30;66893;44.316;0.092;2024-01-30T13:53:55;21.32;53.42
76785;SHT30;66893;44.316;0.092;2024-01-30T13:56:20;21.37;53.34
76785;SHT30;66893;44.316;0.092;2024-01-30T13:58:48;21.40;53.29
76785;SHT30;66893;44.316;0.092;2024-01-30T14:01:14;21.47;53.18
76785;SHT30;66893;44.316;0.092;2024-01-30T14:03:39;21.58;53.14
76785;SHT30;66893;44.316;0.092;2024-01-30T14:06:05;21.98;52.74
76785;SHT30;66893;44.316;0.092;2024-01-30T14:08:31;22.61;51.69
76785;SHT30;66893;44.316;0.092;2024-01-30T14:10:57;23.19;50.70
76785;SHT30;66893;44.316;0.092;2024-01-30T14:13:22;23.73;49.80
76785;SHT30;66893;44.316;0.092;2024-01-30T14:15:48;24.17;49.01
76785;SHT30;66893;44.316;0.092;2024-01-30T14:18:15;24.49;48.48
76785;SHT30;66893;44.316;0.092;2024-01-30T14:20:40;24.49;48.27
76785;SHT30;66893;44.316;0.092;2024-01-30T14:23:06;24.39;48.28
76785;SHT30;66893;44.316;0.092;2024-01-30T14:25:32;24.04;48.50
76785;SHT30;66893;44.316;0.092;2024-01-30T14:27:57;23.63;48.84
76785;SHT30;66893;44.316;0.092;2024-01-30T14:30:23;23.27;49.27
76785;SHT30;66893;44.316;0.092;2024-01-30T14:32:48;22.97;49.57
76785;SHT30;66893;44.316;0.092;2024-01-30T14:35:14;22.70;49.84
76785;SHT30;66893;44.316;0.092;2024-01-30T14:37:40;22.47;50.16
76785;SHT30;66893;44.316;0.092;2024-01-30T14:40:06;22.29;50.34
76785;SHT30;66893;44.316;0.092;2024-01-30T14:42:32;22.10;50.49
76785;SHT30;66893;44.316;0.092;2024-01-30T14:44:58;21.92;50.71
76785;SHT30;66893;44.316;0.092;2024-01-30T14:47:24;21.77;50.87
76785;SHT30;66893;44.316;0.092;2024-01-30T14:49:51;21.64;51.02
76785;SHT30;66893;44.316;0.092;2024-01-30T14:52:17;21.53;51.19
76785;SHT30;66893;44.316;0.092;2024-01-30T14:54:42;21.44;51.29
76785;SHT30;66893;44.316;0.092;2024-01-30T14:57:08;21.33;51.38
76785;SHT30;66893;44.316;0.092;2024-01-30T14:59:34;21.25;51.55
76785;SHT30;66893;44.316;0.092;2024-01-30T15:02:00;21.19;51.66
76785;SHT30;66893;44.316;0.092;2024-01-30T15:04:26;21.13;51.72
76785;SHT30;66893;44.316;0.092;2024-01-30T15:06:51;21.08;51.80
76785;SHT30;66893;44.316;0.092;2024-01-30T15:09:17;20.98;51.83
76785;SHT30;66893;44.316;0.092;2024-01-30T15:11:44;20.94;51.97
76785;SHT30;66893;44.316;0.092;2024-01-30T15:14:09;20.88;52.04
76785;SHT30;66893;44.316;0.092;2024-01-30T15:16:35;20.82;52.13
76785;SHT30;66893;44.316;0.092;2024-01-30T15:19:01;20.79;52.11
76785;SHT30;66893;44.316;0.092;2024-01-30T15:21:28;20.78;52.18
76785;SHT30;66893;44.316;0.092;2024-01-30T15:23:54;20.74;52.26
76785;SHT30;66893;44.316;0.092;2024-01-30T15:26:20;20.70;52.33
76785;SHT30;66893;44.316;0.092;2024-01-30T15:28:45;20.65;52.32